Louisville, KY (40201)

9:54 PM EST on February 22, 2017 (GMT -0500)
Germantown | | Change Station

Elev 469 ft 38.24 °N, 85.73 °W | Updated 4 minutes ago

Overcast
Overcast
66.5 °F
Feels Like 66.5 °F
N
0.2
Wind Variable Wind from North

Today
High -- | Low -- °F
--% Chance of Precip.
Yesterday
High -- | Low -- °F
Precip. -- in
Pressure 29.82 in
Visibility 10.0 miles
Clouds Overcast 4500 ft
Dew Point 60 °F
Humidity 79%
Rainfall 0.00 in
Snow Depth Not available.
7:24 AM 6:29 PM
Waning Crescent, 13% visible
METAR KLOU 230153Z 16004KT 10SM OVC045 19/13 A2983 RMK AO2 SLP097 T01940133
Pressure 29.82 in
Visibility 10.0 miles
Clouds Overcast 4500 ft
Dew Point 60 °F
Humidity 79%
Rainfall 0.00 in
Snow Depth Not available.
7:24 AM 6:29 PM
Waning Crescent, 13% visible
METAR KLOU 230153Z 16004KT 10SM OVC045 19/13 A2983 RMK AO2 SLP097 T01940133

Get Your Daily Forecast Email!

Thanks for signing up!

Be on the lookout for a verification email in your inbox.

You'll start receiving the daily forecast at 8 AM.

×

10-Day Weather Forecast

Almanac

Astronomy

Feb. 22, 2017 Rise Set
Actual Time
Civil Twilight
Nautical Twilight
Astronomical Twilight
Moon
Length of Visible Light
Length of Day
Tomorrow will be .
, % of the Moon is Illuminated

Today's Extremes

State Highs State Lows

Community

WunderPhotos

Upload Photos

1,962,540 photos uploaded!

WunderBlog® & News

Nearby

Air Quality

  Air Quality AQ Index Pollutant
Not available.

Snow Depth

Station Depth Elevation

Earthquake Activity

City Distance Mag. Time & Date
Minimum magnitude displayed is 2.5.

Coastal Water Temperatures

Place Temperature

Stations

Nearby Weather Stations

Station Location Temp. Windchill Dew Point Humidity Wind Precip. Elev Updated Type
                   

Watches & Warnings

There are currently no watches in effect.